Time;durP1;ratioP1;P1;durP2;ratioP2;P2;SDS_P1;SDS_P2;PMS_P1;PMS_P2;Temp;Humidity;BMP_temperature;BMP_pressure;BME280_temperature;BME280_humidity;BME280_pressure;Samples;Min_cycle;Max_cycle;Signal;HPM_P1;HPM_P2
2023/01/22 00:02:26;;;;;;;13.45;8.07;;;0.80;99.90;;;;;;5044383;28;20068;-62
2023/01/22 00:04:51;;;;;;;12.85;8.05;;;0.70;99.90;;;;;;5042739;28;20112;-59
2023/01/22 00:07:18;;;;;;;16.80;8.70;;;0.70;99.90;;;;;;5039137;28;20211;-59
2023/01/22 00:09:44;;;;;;;14.18;9.15;;;0.70;99.90;;;;;;5024684;28;20032;-59
2023/01/22 00:12:10;;;;;;;15.40;9.40;;;0.60;99.90;;;;;;5038520;28;20045;-60
2023/01/22 00:14:35;;;;;;;13.57;8.63;;;0.60;99.90;;;;;;5036415;28;20399;-59
2023/01/22 00:17:01;;;;;;;17.45;8.93;;;0.60;99.90;;;;;;5033786;28;20101;-59
2023/01/22 00:19:27;;;;;;;18.23;10.27;;;0.70;99.90;;;;;;5042970;28;20052;-59
2023/01/22 00:21:53;;;;;;;17.33;9.73;;;0.60;99.90;;;;;;5008362;28;20055;-62
2023/01/22 00:24:19;;;;;;;19.83;9.52;;;0.60;99.90;;;;;;5040845;28;20140;-62
2023/01/22 00:26:44;;;;;;;20.42;10.02;;;0.60;99.90;;;;;;5042952;28;20036;-62
2023/01/22 00:29:11;;;;;;;19.70;10.07;;;0.50;99.90;;;;;;5043384;28;20055;-61
2023/01/22 00:31:36;;;;;;;19.70;10.93;;;0.50;99.90;;;;;;5041808;28;20053;-62
2023/01/22 00:34:03;;;;;;;22.23;10.75;;;0.50;99.90;;;;;;5038976;28;20057;-59
2023/01/22 00:36:28;;;;;;;17.67;10.20;;;0.40;99.90;;;;;;5022965;28;20037;-59
2023/01/22 00:38:54;;;;;;;20.13;10.38;;;0.40;99.90;;;;;;5038126;28;20529;-60
2023/01/22 00:41:20;;;;;;;18.05;10.70;;;0.30;99.90;;;;;;5042812;28;20045;-60
2023/01/22 00:43:47;;;;;;;17.50;10.88;;;0.30;99.90;;;;;;5042202;28;20056;-62
2023/01/22 00:46:15;;;;;;;21.00;11.40;;;0.30;99.90;;;;;;5042749;28;20080;-62
2023/01/22 00:48:44;;;;;;;21.38;11.70;;;0.20;99.90;;;;;;5023387;28;20053;-62
2023/01/22 00:51:11;;;;;;;22.63;11.68;;;0.20;99.90;;;;;;5042495;28;20049;-61
2023/01/22 00:53:40;;;;;;;19.77;12.38;;;0.20;99.90;;;;;;5040653;28;20079;-62
2023/01/22 00:56:06;;;;;;;21.33;11.68;;;0.20;99.90;;;;;;5044172;28;20045;-61
2023/01/22 00:58:32;;;;;;;20.98;12.07;;;0.20;99.90;;;;;;5040208;28;20514;-62
2023/01/22 01:01:02;;;;;;;18.40;11.95;;;0.20;99.90;;;;;;5022421;28;20476;-62
2023/01/22 01:03:30;;;;;;;23.08;12.43;;;0.30;99.90;;;;;;5041327;28;20044;-58
2023/01/22 01:06:03;;;;;;;22.65;12.57;;;0.20;99.90;;;;;;5041691;28;20064;-58
2023/01/22 01:08:33;;;;;;;20.67;12.02;;;0.20;99.90;;;;;;5041376;28;20057;-57
2023/01/22 01:11:01;;;;;;;22.23;12.23;;;0.30;99.90;;;;;;5043296;28;20046;-62
2023/01/22 01:13:30;;;;;;;23.95;12.63;;;0.30;99.90;;;;;;5025676;28;20518;-58
2023/01/22 01:16:07;;;;;;;21.17;12.05;;;0.30;99.90;;;;;;5038670;28;20052;-59
2023/01/22 01:18:34;;;;;;;21.48;12.27;;;0.30;99.90;;;;;;5040935;28;20036;-59
2023/01/22 01:21:00;;;;;;;20.98;13.25;;;0.30;99.90;;;;;;5045472;28;20076;-59
2023/01/22 01:23:28;;;;;;;20.40;12.57;;;0.30;99.90;;;;;;5044669;28;20067;-59
2023/01/22 01:25:54;;;;;;;24.33;12.73;;;0.30;99.90;;;;;;5042395;28;20122;-62
2023/01/22 01:28:20;;;;;;;23.50;12.70;;;0.40;99.90;;;;;;5041630;28;20041;-59
2023/01/22 01:30:46;;;;;;;23.20;12.98;;;0.20;99.90;;;;;;5042856;28;20525;-57
2023/01/22 01:33:12;;;;;;;24.42;12.73;;;0.30;99.90;;;;;;5041762;28;20457;-59
2023/01/22 01:35:38;;;;;;;20.85;12.55;;;0.30;99.90;;;;;;5003768;28;20036;-58
2023/01/22 01:38:05;;;;;;;27.60;12.63;;;0.30;99.90;;;;;;5039986;28;20037;-57
2023/01/22 01:40:31;;;;;;;20.40;12.60;;;0.30;99.90;;;;;;5038390;28;20045;-59
2023/01/22 01:42:57;;;;;;;19.45;12.68;;;0.30;99.90;;;;;;5041010;28;20045;-59
2023/01/22 01:45:33;;;;;;;22.65;13.10;;;0.30;99.90;;;;;;5020387;28;20048;-58
2023/01/22 01:48:10;;;;;;;24.15;13.32;;;0.30;99.90;;;;;;5040073;28;20036;-59
2023/01/22 01:50:41;;;;;;;25.33;13.38;;;0.30;99.90;;;;;;5040027;28;20049;-59
2023/01/22 01:53:07;;;;;;;20.27;12.20;;;0.30;99.90;;;;;;5039497;28;20037;-59
2023/01/22 01:55:37;;;;;;;22.67;13.18;;;0.30;99.90;;;;;;5039166;28;20510;-59
2023/01/22 01:58:09;;;;;;;19.55;12.38;;;0.30;99.90;;;;;;5023566;28;20036;-62
2023/01/22 02:00:38;;;;;;;20.42;12.00;;;0.30;99.90;;;;;;5040279;28;20060;-59
2023/01/22 02:03:04;;;;;;;22.70;11.45;;;0.40;99.90;;;;;;5039531;28;20044;-59
2023/01/22 02:05:36;;;;;;;21.67;12.48;;;0.30;99.90;;;;;;5041148;28;20083;-59
2023/01/22 02:08:02;;;;;;;24.80;13.80;;;0.30;99.90;;;;;;5038797;28;20036;-59
2023/01/22 02:10:28;;;;;;;23.73;12.68;;;0.30;99.90;;;;;;5039965;28;20134;-59
2023/01/22 02:12:58;;;;;;;21.73;13.45;;;0.30;99.90;;;;;;5041409;28;20048;-58
2023/01/22 02:15:24;;;;;;;22.65;13.25;;;0.30;99.90;;;;;;5036841;28;20044;-59
2023/01/22 02:17:50;;;;;;;21.85;12.80;;;0.30;99.90;;;;;;5035437;28;20048;-58
2023/01/22 02:20:16;;;;;;;21.63;13.23;;;0.30;99.90;;;;;;5041634;28;20121;-59
2023/01/22 02:22:42;;;;;;;21.13;12.77;;;0.30;99.90;;;;;;5039279;28;20052;-59
2023/01/22 02:25:08;;;;;;;21.55;12.48;;;0.30;99.90;;;;;;5040233;28;20439;-59
2023/01/22 02:27:34;;;;;;;21.95;13.02;;;0.20;99.90;;;;;;5038987;28;20454;-59
2023/01/22 02:30:00;;;;;;;24.15;12.93;;;0.30;99.90;;;;;;5018694;28;20037;-59
2023/01/22 02:32:27;;;;;;;23.50;13.15;;;0.30;99.90;;;;;;5042572;28;20053;-58
2023/01/22 02:34:54;;;;;;;24.02;12.85;;;0.30;99.90;;;;;;5040380;28;20098;-59
2023/01/22 02:37:19;;;;;;;22.20;13.43;;;0.30;99.90;;;;;;5040098;28;20037;-59
2023/01/22 02:39:45;;;;;;;17.58;11.63;;;0.30;99.90;;;;;;5040548;28;20053;-59
2023/01/22 02:42:11;;;;;;;19.73;11.45;;;0.30;99.90;;;;;;5036853;28;20087;-59
2023/01/22 02:44:37;;;;;;;18.83;11.30;;;0.30;99.90;;;;;;5022609;28;20048;-59
2023/01/22 02:47:04;;;;;;;22.77;11.45;;;0.30;99.90;;;;;;5045445;28;20044;-58
2023/01/22 02:49:29;;;;;;;17.63;11.02;;;0.30;99.90;;;;;;5042856;28;20059;-58
2023/01/22 02:51:55;;;;;;;18.17;10.80;;;0.30;99.90;;;;;;5043584;28;20380;-58
2023/01/22 02:54:21;;;;;;;20.98;9.90;;;0.40;99.90;;;;;;5044678;28;20044;-59
2023/01/22 02:56:47;;;;;;;18.02;9.95;;;0.40;99.90;;;;;;5042640;28;20128;-60
2023/01/22 02:59:13;;;;;;;17.20;9.18;;;0.40;99.90;;;;;;5042185;28;20045;-59
2023/01/22 03:01:39;;;;;;;16.67;9.10;;;0.40;99.90;;;;;;5041741;28;20483;-57
2023/01/22 03:04:10;;;;;;;13.77;8.20;;;0.40;99.90;;;;;;5044193;28;20053;-59
2023/01/22 03:06:41;;;;;;;13.48;7.68;;;0.40;99.90;;;;;;5022159;28;20045;-59
2023/01/22 03:09:08;;;;;;;15.50;7.45;;;0.40;99.90;;;;;;5046952;28;20049;-59
2023/01/22 03:11:35;;;;;;;15.38;7.32;;;0.40;99.90;;;;;;5027316;28;20500;-58
2023/01/22 03:22:15;;;;;;;13.10;5.65;;;0.40;99.90;;;;;;5049123;28;20076;-58
2023/01/22 03:24:42;;;;;;;12.18;5.03;;;0.40;99.90;;;;;;5023799;28;20061;-58
2023/01/22 03:27:08;;;;;;;10.27;5.13;;;0.50;99.90;;;;;;5046373;28;20084;-59
2023/01/22 03:29:37;;;;;;;8.40;5.13;;;0.50;99.90;;;;;;5045297;28;20049;-59
2023/01/22 03:32:04;;;;;;;9.38;5.15;;;0.50;99.90;;;;;;5030467;28;20055;-59
2023/01/22 03:34:30;;;;;;;8.70;4.97;;;0.50;99.90;;;;;;5045647;28;20041;-59
2023/01/22 03:36:56;;;;;;;9.13;5.10;;;0.50;99.90;;;;;;5016663;28;20124;-59
2023/01/22 03:39:22;;;;;;;9.10;5.72;;;0.50;99.90;;;;;;5012383;28;20411;-59
2023/01/22 03:41:48;;;;;;;10.65;5.35;;;0.50;99.90;;;;;;5042351;28;20106;-59
2023/01/22 03:44:14;;;;;;;10.05;5.47;;;0.50;99.90;;;;;;5041653;28;20487;-59
2023/01/22 03:46:39;;;;;;;10.40;5.53;;;0.60;99.90;;;;;;5043085;28;20041;-59
2023/01/22 03:49:07;;;;;;;12.73;5.60;;;0.60;99.90;;;;;;5022662;28;20052;-59
2023/01/22 03:51:33;;;;;;;9.30;5.13;;;0.60;99.90;;;;;;5042886;28;20037;-59
2023/01/22 03:53:59;;;;;;;12.13;5.28;;;0.60;99.90;;;;;;5043393;28;20060;-60
2023/01/22 03:56:25;;;;;;;11.77;5.18;;;0.70;99.90;;;;;;5044028;28;20049;-59
2023/01/22 03:58:51;;;;;;;10.18;5.07;;;0.60;99.90;;;;;;5039785;28;20049;-58
2023/01/22 04:01:23;;;;;;;7.70;4.80;;;0.60;99.90;;;;;;5038523;28;20134;-60
2023/01/22 04:03:49;;;;;;;9.85;4.88;;;0.60;99.90;;;;;;5044008;28;20127;-60
2023/01/22 04:06:16;;;;;;;7.68;4.35;;;0.60;99.90;;;;;;5039382;28;20048;-59
2023/01/22 04:08:44;;;;;;;10.30;5.07;;;0.70;99.90;;;;;;5043342;28;20048;-59
2023/01/22 04:11:10;;;;;;;8.48;4.60;;;0.70;99.90;;;;;;5041906;28;20049;-59
2023/01/22 04:13:38;;;;;;;7.88;4.60;;;0.60;99.90;;;;;;5043633;28;20049;-60
2023/01/22 04:16:04;;;;;;;8.80;4.80;;;0.60;99.90;;;;;;5020445;28;20044;-60
2023/01/22 04:18:30;;;;;;;7.75;4.40;;;0.70;99.90;;;;;;5041985;28;20069;-59
2023/01/22 04:20:56;;;;;;;8.85;4.85;;;0.70;99.90;;;;;;5025718;28;20090;-60
2023/01/22 04:23:23;;;;;;;8.95;5.47;;;0.70;99.90;;;;;;5019340;28;20070;-59
2023/01/22 04:25:49;;;;;;;13.30;5.80;;;0.70;99.90;;;;;;5041722;28;20044;-59
2023/01/22 04:28:15;;;;;;;8.45;5.22;;;0.70;99.90;;;;;;5042539;28;20063;-59
2023/01/22 04:30:43;;;;;;;8.68;4.82;;;0.70;99.90;;;;;;5016896;28;20114;-59
2023/01/22 04:33:09;;;;;;;8.93;5.30;;;0.80;99.90;;;;;;5042863;28;20048;-60
2023/01/22 04:35:36;;;;;;;7.70;5.15;;;0.80;99.90;;;;;;5043360;28;20114;-60
2023/01/22 04:38:03;;;;;;;13.57;5.63;;;0.80;99.90;;;;;;5040332;28;20037;-59
2023/01/22 04:40:29;;;;;;;9.60;4.85;;;0.80;99.90;;;;;;5038050;28;20412;-60
2023/01/22 04:42:59;;;;;;;8.35;5.05;;;0.80;99.90;;;;;;5041434;28;20056;-60
2023/01/22 04:45:24;;;;;;;9.32;4.85;;;0.80;99.90;;;;;;5039605;28;20033;-59
2023/01/22 04:47:50;;;;;;;13.15;5.55;;;0.80;99.90;;;;;;5044400;28;20040;-60
2023/01/22 04:50:25;;;;;;;8.25;4.80;;;0.80;99.90;;;;;;5038908;28;20056;-60
2023/01/22 04:52:52;;;;;;;7.25;4.70;;;0.90;99.90;;;;;;5025177;28;20475;-59
2023/01/22 04:55:18;;;;;;;9.35;5.18;;;0.90;99.90;;;;;;5024049;28;20160;-60
2023/01/22 04:57:45;;;;;;;6.53;4.68;;;0.90;99.90;;;;;;5021471;28;20040;-60
2023/01/22 05:00:11;;;;;;;7.82;5.15;;;0.90;99.90;;;;;;5041795;28;20056;-60
2023/01/22 05:02:38;;;;;;;8.32;4.50;;;0.90;99.90;;;;;;5041471;28;20403;-60
2023/01/22 05:05:05;;;;;;;11.23;4.88;;;0.90;99.90;;;;;;5040213;28;20051;-60
2023/01/22 05:07:31;;;;;;;10.82;5.10;;;1.00;99.90;;;;;;5015098;28;21060;-57
2023/01/22 05:09:57;;;;;;;9.15;4.72;;;1.00;99.90;;;;;;5027422;28;20054;-59
2023/01/22 05:12:23;;;;;;;7.10;4.65;;;1.00;99.90;;;;;;5043506;28;20040;-58
2023/01/22 05:14:49;;;;;;;6.75;4.57;;;1.00;99.90;;;;;;5046253;28;20123;-60
2023/01/22 05:17:15;;;;;;;9.05;4.53;;;0.90;99.90;;;;;;5045773;28;20045;-60
2023/01/22 05:19:40;;;;;;;14.75;4.65;;;1.00;99.90;;;;;;5044425;28;20053;-59
2023/01/22 05:22:07;;;;;;;9.32;5.03;;;1.00;99.90;;;;;;5045127;28;20127;-60
2023/01/22 05:24:33;;;;;;;12.13;5.15;;;1.00;99.90;;;;;;5044020;28;20118;-59
2023/01/22 05:26:58;;;;;;;7.28;4.70;;;1.00;99.90;;;;;;5043758;28;20475;-60
2023/01/22 05:29:25;;;;;;;6.43;5.07;;;1.00;99.90;;;;;;5046635;28;20041;-59
2023/01/22 05:31:56;;;;;;;6.50;4.70;;;0.90;99.90;;;;;;5045269;28;20071;-60
2023/01/22 05:34:23;;;;;;;10.15;5.03;;;1.00;99.90;;;;;;5046716;28;20037;-60
2023/01/22 05:36:48;;;;;;;8.98;4.97;;;1.00;99.90;;;;;;5039995;28;20055;-60
2023/01/22 05:39:15;;;;;;;10.02;4.80;;;1.00;99.90;;;;;;5040579;28;20483;-60
2023/01/22 05:41:41;;;;;;;6.70;4.70;;;1.00;99.90;;;;;;5039838;28;20147;-60
2023/01/22 05:44:10;;;;;;;8.75;4.68;;;1.00;99.90;;;;;;5023967;28;20137;-60
2023/01/22 05:46:36;;;;;;;8.13;5.50;;;1.00;99.90;;;;;;5040784;28;20193;-60
2023/01/22 05:49:02;;;;;;;6.05;4.50;;;1.00;99.90;;;;;;5038181;28;20045;-59
2023/01/22 05:51:27;;;;;;;7.38;4.80;;;1.00;99.90;;;;;;5021835;28;20076;-60
2023/01/22 05:53:53;;;;;;;6.20;4.78;;;1.00;99.90;;;;;;5042535;28;20049;-59
2023/01/22 05:56:19;;;;;;;8.32;5.03;;;1.00;99.90;;;;;;5041966;28;20546;-60
2023/01/22 05:58:45;;;;;;;6.95;5.00;;;1.10;99.90;;;;;;5039459;28;20080;-60
2023/01/22 06:01:11;;;;;;;10.18;5.03;;;1.10;99.90;;;;;;5040051;28;20090;-60
2023/01/22 06:03:37;;;;;;;8.27;5.45;;;1.00;99.90;;;;;;5038718;28;20056;-60
2023/01/22 06:06:09;;;;;;;7.03;5.10;;;1.00;99.90;;;;;;5037618;28;20083;-59
2023/01/22 06:08:35;;;;;;;9.43;4.90;;;1.00;99.90;;;;;;5038792;28;20468;-60
2023/01/22 06:11:03;;;;;;;9.80;5.55;;;1.00;99.90;;;;;;5020734;28;20119;-60
2023/01/22 06:13:30;;;;;;;9.25;5.63;;;1.00;99.90;;;;;;5037914;28;20052;-60
2023/01/22 06:15:56;;;;;;;11.18;5.68;;;1.00;99.90;;;;;;5038389;28;20041;-60
2023/01/22 06:18:23;;;;;;;8.80;5.85;;;1.00;99.90;;;;;;5041043;28;20568;-59
2023/01/22 06:20:50;;;;;;;10.50;5.82;;;1.00;99.90;;;;;;5041852;28;20045;-60
2023/01/22 06:23:16;;;;;;;9.70;5.85;;;1.00;99.90;;;;;;5022882;28;20456;-60
2023/01/22 06:25:42;;;;;;;14.68;5.78;;;1.00;99.90;;;;;;5044986;28;20173;-60
2023/01/22 06:28:08;;;;;;;11.95;5.38;;;1.00;99.90;;;;;;5041280;28;20045;-60
2023/01/22 06:30:35;;;;;;;10.30;6.07;;;1.00;99.90;;;;;;5044495;28;20099;-57
2023/01/22 06:33:01;;;;;;;12.68;5.93;;;1.00;99.90;;;;;;5045970;28;20120;-59
2023/01/22 06:35:27;;;;;;;8.80;5.72;;;1.00;99.90;;;;;;5038069;28;20938;-60
2023/01/22 06:37:53;;;;;;;9.23;6.05;;;1.00;99.90;;;;;;5043826;28;20041;-60
2023/01/22 06:40:19;;;;;;;8.95;6.00;;;1.00;99.90;;;;;;5039776;28;20056;-59
2023/01/22 06:42:44;;;;;;;9.38;6.57;;;0.90;99.90;;;;;;5044487;28;20056;-60
2023/01/22 06:45:11;;;;;;;8.85;5.47;;;1.00;99.90;;;;;;5047725;28;20136;-59
2023/01/22 06:47:36;;;;;;;8.30;6.18;;;0.90;99.90;;;;;;5046555;28;20037;-59
2023/01/22 06:50:03;;;;;;;9.27;5.97;;;0.90;99.90;;;;;;5044075;28;20064;-59
2023/01/22 06:52:29;;;;;;;10.70;5.80;;;0.90;99.90;;;;;;5042275;28;20102;-60
2023/01/22 06:54:54;;;;;;;9.45;5.78;;;0.90;99.90;;;;;;5043342;28;20049;-60
2023/01/22 06:57:20;;;;;;;11.15;6.63;;;0.90;99.90;;;;;;5042701;28;20053;-60
2023/01/22 06:59:46;;;;;;;10.82;6.35;;;0.90;99.90;;;;;;5019270;28;20047;-60
2023/01/22 07:02:16;;;;;;;12.52;6.50;;;0.90;99.90;;;;;;5043687;28;20053;-59
2023/01/22 07:04:42;;;;;;;9.23;6.65;;;0.90;99.90;;;;;;5043997;28;20487;-60
2023/01/22 07:07:08;;;;;;;9.82;6.40;;;0.90;99.90;;;;;;5043584;28;20110;-59
2023/01/22 07:09:34;;;;;;;12.43;6.97;;;0.90;99.90;;;;;;5047855;28;20072;-60
2023/01/22 07:12:00;;;;;;;9.43;6.57;;;0.90;99.90;;;;;;5046696;28;20055;-59
2023/01/22 07:14:27;;;;;;;11.82;7.00;;;0.90;99.90;;;;;;5022732;28;20471;-60
2023/01/22 07:16:54;;;;;;;16.30;7.32;;;0.90;99.90;;;;;;5046923;28;20457;-60
2023/01/22 07:19:19;;;;;;;11.50;6.93;;;0.80;99.90;;;;;;5028144;28;20057;-60
2023/01/22 07:21:45;;;;;;;12.45;7.03;;;0.80;99.90;;;;;;5043644;28;20052;-59
2023/01/22 07:24:11;;;;;;;10.18;7.22;;;0.80;99.90;;;;;;5043631;28;20070;-60
2023/01/22 07:26:40;;;;;;;12.05;7.53;;;0.80;99.90;;;;;;5028831;28;20496;-59
2023/01/22 07:29:06;;;;;;;11.48;7.00;;;0.80;99.90;;;;;;5044399;28;20048;-60
2023/01/22 07:31:32;;;;;;;11.10;7.47;;;0.80;99.90;;;;;;5040247;28;26802;-60
2023/01/22 07:33:57;;;;;;;12.25;7.53;;;0.80;99.90;;;;;;5028537;28;20730;-59
2023/01/22 07:36:23;;;;;;;11.93;8.00;;;0.80;99.90;;;;;;5044865;28;20088;-59
2023/01/22 07:38:49;;;;;;;13.68;7.78;;;0.70;99.90;;;;;;5041800;28;20041;-60
2023/01/22 07:41:16;;;;;;;12.88;7.05;;;0.70;99.90;;;;;;5044055;28;20048;-59
2023/01/22 07:43:42;;;;;;;9.80;7.72;;;0.70;99.90;;;;;;5044074;28;20052;-58
2023/01/22 07:46:07;;;;;;;12.63;7.57;;;0.80;99.90;;;;;;5026672;28;20041;-59
2023/01/22 07:48:33;;;;;;;13.10;8.32;;;0.70;99.90;;;;;;5041980;28;20049;-59
2023/01/22 07:51:04;;;;;;;12.90;7.45;;;0.70;99.90;;;;;;5040805;28;20106;-60
2023/01/22 07:53:30;;;;;;;11.75;8.25;;;0.70;99.90;;;;;;5044220;28;20053;-59
2023/01/22 07:55:56;;;;;;;12.13;8.15;;;0.70;99.90;;;;;;5018305;28;20083;-60
2023/01/22 07:58:22;;;;;;;11.48;7.45;;;0.70;99.90;;;;;;5043493;28;20076;-60
2023/01/22 08:00:48;;;;;;;13.15;8.20;;;0.70;99.90;;;;;;5008016;28;20051;-58
2023/01/22 08:03:14;;;;;;;13.23;8.60;;;0.70;99.90;;;;;;5045121;28;20160;-59
2023/01/22 08:05:41;;;;;;;11.25;8.35;;;0.70;99.90;;;;;;5039069;28;20040;-60
2023/01/22 08:08:16;;;;;;;15.57;8.77;;;0.60;99.90;;;;;;5043478;28;20115;-59
2023/01/22 08:10:43;;;;;;;12.23;8.52;;;0.60;99.90;;;;;;5040350;28;20052;-59
2023/01/22 08:13:09;;;;;;;12.35;8.27;;;0.60;99.90;;;;;;5043788;28;20048;-59
2023/01/22 08:15:35;;;;;;;11.65;8.68;;;0.60;99.90;;;;;;5018042;28;20434;-59
2023/01/22 08:18:00;;;;;;;10.52;8.38;;;0.60;99.90;;;;;;5026622;28;20048;-59
2023/01/22 08:20:26;;;;;;;9.38;7.95;;;0.60;99.90;;;;;;5042796;28;20049;-59
2023/01/22 08:22:59;;;;;;;11.55;7.78;;;0.60;99.90;;;;;;5044642;28;20092;-59
2023/01/22 08:25:25;;;;;;;;;;;0.60;99.90;;;;;;5041298;28;20059;-59
2023/01/22 08:27:51;;;;;;;11.40;7.90;;;0.50;99.90;;;;;;5043649;28;20382;-60
2023/01/22 08:30:17;;;;;;;10.52;8.00;;;0.50;99.90;;;;;;5040245;28;20048;-60
2023/01/22 08:32:44;;;;;;;11.40;8.00;;;0.60;99.90;;;;;;5028989;28;20045;-58
2023/01/22 08:35:11;;;;;;;8.98;6.95;;;0.50;99.90;;;;;;5043073;28;20094;-60
2023/01/22 08:37:37;;;;;;;9.82;7.38;;;0.60;99.90;;;;;;5037752;28;20114;-60
2023/01/22 08:40:08;;;;;;;12.80;7.30;;;0.60;99.90;;;;;;5041006;28;20048;-58
2023/01/22 08:42:34;;;;;;;12.57;7.05;;;0.60;99.90;;;;;;5042774;28;20041;-60
2023/01/22 08:45:00;;;;;;;11.73;6.90;;;0.60;99.90;;;;;;5037716;28;22477;-59
2023/01/22 08:47:26;;;;;;;10.80;7.70;;;0.60;99.90;;;;;;5024662;28;20045;-60
2023/01/22 08:49:52;;;;;;;13.93;7.18;;;0.60;99.90;;;;;;5035114;28;20057;-60
2023/01/22 08:52:17;;;;;;;11.30;7.18;;;0.60;99.90;;;;;;5037236;28;20055;-60
2023/01/22 08:54:43;;;;;;;10.43;6.95;;;0.60;99.90;;;;;;5043778;28;20033;-59
2023/01/22 08:57:09;;;;;;;8.70;6.95;;;0.60;99.90;;;;;;5040163;28;20052;-60
2023/01/22 08:59:35;;;;;;;10.13;7.10;;;0.60;99.90;;;;;;5037613;28;20135;-60
2023/01/22 09:02:01;;;;;;;10.00;7.18;;;0.60;99.90;;;;;;5036037;28;20068;-59
2023/01/22 09:04:27;;;;;;;12.25;7.22;;;0.60;99.90;;;;;;5040590;28;20109;-60
2023/01/22 09:06:54;;;;;;;9.88;6.93;;;0.60;99.90;;;;;;5040908;28;20048;-59
2023/01/22 09:09:19;;;;;;;13.07;7.32;;;0.70;99.90;;;;;;5039750;28;20051;-59
2023/01/22 09:11:45;;;;;;;13.57;7.82;;;0.70;99.90;;;;;;5023118;28;20053;-59
2023/01/22 09:14:12;;;;;;;14.52;7.50;;;0.70;99.90;;;;;;5041435;28;20179;-60
2023/01/22 09:16:39;;;;;;;10.50;6.93;;;0.70;99.90;;;;;;5041221;28;20040;-60
2023/01/22 09:19:05;;;;;;;12.48;6.90;;;0.80;99.90;;;;;;5036389;28;20041;-60
2023/01/22 09:21:36;;;;;;;11.13;7.25;;;0.80;99.90;;;;;;5033516;28;20069;-59
2023/01/22 09:24:03;;;;;;;11.05;7.18;;;0.80;99.90;;;;;;5038081;28;20073;-60
2023/01/22 09:26:31;;;;;;;11.77;6.82;;;0.80;99.90;;;;;;5041058;28;21189;-60
2023/01/22 09:28:59;;;;;;;11.13;7.53;;;0.90;99.90;;;;;;5037905;28;20117;-59
2023/01/22 09:31:26;;;;;;;11.82;7.25;;;0.90;99.90;;;;;;5041752;28;22533;-60
2023/01/22 09:33:54;;;;;;;10.35;7.07;;;1.00;99.90;;;;;;5044999;28;20048;-60
2023/01/22 09:36:20;;;;;;;10.00;7.10;;;1.00;99.90;;;;;;5046214;28;20098;-60
2023/01/22 09:38:46;;;;;;;11.07;6.88;;;0.90;99.90;;;;;;5042655;28;20045;-59
2023/01/22 09:41:31;;;;;;;12.00;6.47;;;0.90;99.90;;;;;;5036833;28;20215;-60
2023/01/22 09:44:02;;;;;;;9.15;6.03;;;0.90;99.90;;;;;;5039233;28;20044;-60
2023/01/22 09:46:27;;;;;;;9.35;6.80;;;0.90;99.90;;;;;;5021870;28;20060;-60
2023/01/22 09:49:02;;;;;;;9.70;6.82;;;0.90;99.90;;;;;;5037107;28;20045;-60
2023/01/22 09:51:28;;;;;;;10.45;6.90;;;1.00;99.90;;;;;;5042980;28;20460;-60
2023/01/22 09:54:00;;;;;;;11.20;6.65;;;1.00;99.90;;;;;;5024453;28;20108;-60
2023/01/22 09:56:40;;;;;;;10.27;6.60;;;1.00;99.90;;;;;;5024130;28;20119;-60
2023/01/22 09:59:12;;;;;;;12.05;7.30;;;1.00;99.90;;;;;;5025339;28;20052;-60
2023/01/22 10:01:38;;;;;;;9.85;6.47;;;1.00;99.90;;;;;;5044672;28;20040;-60
2023/01/22 10:04:19;;;;;;;11.93;6.80;;;1.10;99.90;;;;;;5045357;28;20045;-60
2023/01/22 10:06:46;;;;;;;10.85;6.32;;;1.20;99.90;;;;;;5018456;28;20049;-60
2023/01/22 10:09:17;;;;;;;10.18;6.57;;;1.10;99.90;;;;;;5042125;28;20037;-60
2023/01/22 10:11:50;;;;;;;7.85;5.88;;;1.10;99.90;;;;;;5040681;28;20460;-58
2023/01/22 10:14:18;;;;;;;12.65;6.00;;;1.20;99.90;;;;;;5040721;28;20380;-60
2023/01/22 10:16:47;;;;;;;9.70;5.47;;;1.20;99.90;;;;;;5032061;28;20508;-63
2023/01/22 10:19:26;;;;;;;8.80;5.55;;;1.20;99.90;;;;;;5039459;28;20503;-64
2023/01/22 10:22:05;;;;;;;8.45;5.50;;;1.20;99.90;;;;;;5033346;28;20041;-63
2023/01/22 10:24:31;;;;;;;8.98;5.75;;;1.30;99.90;;;;;;5040672;28;20080;-64
2023/01/22 10:27:12;;;;;;;8.45;6.07;;;1.30;99.90;;;;;;5015332;28;20136;-63
2023/01/22 10:29:38;;;;;;;10.90;5.47;;;1.30;99.90;;;;;;5014098;28;20064;-61
2023/01/22 10:32:22;;;;;;;8.27;5.25;;;1.40;99.90;;;;;;5017861;28;20116;-63
2023/01/22 10:35:10;;;;;;;11.90;6.07;;;1.50;99.90;;;;;;5025349;28;20068;-63
2023/01/22 10:37:50;;;;;;;7.93;5.72;;;1.50;99.90;;;;;;5013464;28;20052;-64
2023/01/22 10:40:29;;;;;;;9.85;6.18;;;1.50;99.90;;;;;;5015008;28;20067;-63
2023/01/22 10:43:10;;;;;;;9.50;6.40;;;1.60;99.90;;;;;;5020456;28;20095;-62
2023/01/22 10:45:37;;;;;;;11.00;6.55;;;1.60;99.90;;;;;;5036482;28;20563;-63
2023/01/22 10:48:05;;;;;;;14.70;7.38;;;1.60;99.90;;;;;;5005681;28;20455;-64
2023/01/22 10:50:31;;;;;;;10.43;7.38;;;1.70;99.90;;;;;;5043274;28;20127;-64
2023/01/22 10:52:57;;;;;;;15.18;7.32;;;1.70;99.90;;;;;;5043952;28;20056;-61
2023/01/22 10:55:33;;;;;;;8.57;7.45;;;1.70;99.90;;;;;;5021730;28;20502;-62
2023/01/22 10:58:01;;;;;;;12.55;6.97;;;1.80;99.90;;;;;;5044272;28;20052;-62
2023/01/22 11:00:31;;;;;;;11.57;6.88;;;2.00;99.90;;;;;;5044613;28;20041;-61
2023/01/22 11:02:58;;;;;;;15.05;6.97;;;1.80;99.90;;;;;;5043000;28;20053;-63
2023/01/22 11:05:35;;;;;;;14.10;7.18;;;1.90;99.90;;;;;;5044728;28;20119;-64
2023/01/22 11:08:10;;;;;;;11.18;7.00;;;1.90;99.90;;;;;;5038288;28;20057;-62
2023/01/22 11:10:42;;;;;;;11.48;7.13;;;1.90;99.90;;;;;;5044567;28;20483;-64
2023/01/22 11:13:49;;;;;;;16.00;8.00;;;2.00;99.90;;;;;;5046715;28;20106;-63
2023/01/22 11:16:18;;;;;;;15.25;7.70;;;2.00;99.90;;;;;;5048275;28;20124;-63
2023/01/22 11:18:57;;;;;;;11.63;7.47;;;2.00;99.90;;;;;;5045755;28;20080;-63
2023/01/22 11:21:45;;;;;;;11.70;7.22;;;2.10;99.90;;;;;;5029112;28;20037;-64
2023/01/22 11:24:28;;;;;;;11.77;7.25;;;2.10;99.90;;;;;;5043117;28;20044;-64
2023/01/22 11:27:13;;;;;;;9.90;6.80;;;2.10;99.90;;;;;;5047331;28;20124;-62
2023/01/22 11:30:00;;;;;;;12.18;6.95;;;2.20;99.90;;;;;;5027703;28;20041;-64
2023/01/22 11:32:44;;;;;;;10.65;6.63;;;2.20;99.90;;;;;;5030765;28;20407;-63
2023/01/22 11:35:31;;;;;;;12.00;7.30;;;2.30;99.90;;;;;;5044505;28;20494;-64
2023/01/22 11:38:26;;;;;;;13.63;7.88;;;2.30;99.90;;;;;;5046377;28;20577;-64
2023/01/22 11:41:26;;;;;;;10.75;7.05;;;2.40;99.90;;;;;;5046011;28;20479;-64
2023/01/22 11:44:13;;;;;;;11.18;6.88;;;2.40;99.90;;;;;;5046603;28;20366;-64
2023/01/22 11:46:50;;;;;;;10.77;6.30;;;2.40;99.90;;;;;;5046344;28;20037;-64
2023/01/22 11:49:31;;;;;;;10.15;6.50;;;2.50;99.90;;;;;;5046845;28;20174;-64
2023/01/22 11:52:10;;;;;;;10.50;6.18;;;2.50;99.90;;;;;;5046082;28;20053;-64
2023/01/22 11:55:33;;;;;;;8.60;6.07;;;2.60;99.90;;;;;;5028819;28;20041;-63
2023/01/22 11:58:04;;;;;;;10.93;6.15;;;2.60;99.90;;;;;;4974966;28;20129;-64
2023/01/22 12:00:43;;;;;;;8.98;6.57;;;2.70;99.90;;;;;;4963800;28;20077;-64
2023/01/22 12:03:20;;;;;;;10.70;6.32;;;2.70;99.90;;;;;;5023407;28;20053;-63
2023/01/22 12:06:29;;;;;;;13.38;6.57;;;2.70;99.90;;;;;;5039796;28;20063;-64
2023/01/22 12:09:06;;;;;;;12.85;6.18;;;2.80;99.90;;;;;;5031647;28;20128;-64
2023/01/22 12:11:54;;;;;;;11.52;6.38;;;2.80;99.90;;;;;;5044902;28;20131;-64
2023/01/22 12:14:46;;;;;;;8.55;5.80;;;2.80;99.90;;;;;;5044210;28;20068;-64
2023/01/22 12:17:39;;;;;;;12.30;6.15;;;2.80;99.90;;;;;;5045117;28;20036;-63
2023/01/22 12:20:11;;;;;;;14.15;6.80;;;2.90;99.90;;;;;;5040761;28;20154;-64
2023/01/22 12:22:49;;;;;;;9.25;6.45;;;2.90;99.90;;;;;;5043965;28;20047;-63
2023/01/22 12:25:33;;;;;;;11.85;6.50;;;2.90;99.90;;;;;;5043454;28;20064;-62
2023/01/22 12:28:07;;;;;;;11.07;6.30;;;2.80;99.90;;;;;;5046434;28;20097;-62
2023/01/22 12:31:04;;;;;;;10.38;6.57;;;2.90;99.90;;;;;;5043092;28;20128;-62
2023/01/22 12:33:33;;;;;;;10.05;6.13;;;2.90;99.90;;;;;;5020026;28;20049;-64
2023/01/22 12:36:02;;;;;;;12.35;6.75;;;2.90;99.90;;;;;;5042966;28;20044;-64
2023/01/22 12:38:49;;;;;;;9.32;6.97;;;2.90;99.90;;;;;;5044573;28;20498;-61
2023/01/22 12:41:35;;;;;;;11.70;6.38;;;3.00;99.90;;;;;;5043420;28;20095;-64
2023/01/22 12:44:20;;;;;;;8.30;5.97;;;3.00;99.90;;;;;;5026546;28;20045;-63
2023/01/22 12:47:08;;;;;;;11.43;6.60;;;2.90;99.90;;;;;;5044824;28;20546;-64
2023/01/22 12:49:47;;;;;;;9.88;6.82;;;2.90;99.90;;;;;;5044249;28;21079;-64
2023/01/22 12:52:35;;;;;;;10.55;6.03;;;2.90;99.90;;;;;;5045886;28;20068;-62
2023/01/22 12:55:04;;;;;;;9.63;6.40;;;2.90;99.90;;;;;;5040959;28;20090;-63
2023/01/22 12:57:40;;;;;;;9.43;6.05;;;2.90;99.90;;;;;;5020497;28;20128;-64
2023/01/22 13:00:21;;;;;;;11.02;6.82;;;2.90;99.90;;;;;;5046061;28;20128;-64
2023/01/22 13:02:47;;;;;;;11.40;5.80;;;2.90;99.90;;;;;;5044647;28;20052;-64
2023/01/22 13:05:30;;;;;;;9.95;6.35;;;2.80;99.90;;;;;;5027434;28;20142;-64
2023/01/22 13:08:05;;;;;;;9.27;6.25;;;2.90;99.90;;;;;;5045837;28;20040;-63
2023/01/22 13:10:34;;;;;;;9.25;5.95;;;2.80;99.90;;;;;;5044266;28;20110;-64